Time;durP1;ratioP1;P1;durP2;ratioP2;P2;SDS_P1;SDS_P2;PMS_P1;PMS_P2;Temp;Humidity;BMP_temperature;BMP_pressure;BME280_temperature;BME280_humidity;BME280_pressure;Samples;Min_cycle;Max_cycle;Signal;HPM_P1;HPM_P2
2023/11/09 00:01:45;;;;;;;2.38;1.20;;;;;;;11.89;100.00;100150.81;5336027;27;20045;-74
2023/11/09 00:04:17;;;;;;;2.00;0.90;;;;;;;11.93;100.00;100140.78;5335436;27;20472;-74
2023/11/09 00:06:49;;;;;;;2.92;0.80;;;;;;;11.89;100.00;100137.69;5338297;27;20037;-74
2023/11/09 00:09:22;;;;;;;1.73;0.80;;;;;;;11.89;100.00;100135.06;5337635;27;20034;-74
2023/11/09 00:11:56;;;;;;;1.58;0.60;;;;;;;11.93;100.00;100132.91;5335678;27;20043;-74
2023/11/09 00:14:28;;;;;;;1.30;0.70;;;;;;;11.89;100.00;100121.94;5336843;27;20503;-74
2023/11/09 00:16:59;;;;;;;1.63;0.85;;;;;;;11.91;100.00;100127.00;5335743;27;20040;-74
2023/11/09 00:19:31;;;;;;;2.17;1.08;;;;;;;11.91;100.00;100124.41;5336605;27;20035;-74
2023/11/09 00:22:03;;;;;;;2.20;1.08;;;;;;;11.91;100.00;100117.34;5335905;27;20101;-74
2023/11/09 00:24:35;;;;;;;1.20;0.70;;;;;;;11.87;100.00;100108.13;5337047;27;20423;-74
2023/11/09 00:27:07;;;;;;;1.60;0.80;;;;;;;11.84;100.00;100105.81;5337159;27;20024;-74
2023/11/09 00:29:39;;;;;;;1.33;0.80;;;;;;;11.89;100.00;100103.56;5333459;27;20030;-74
2023/11/09 00:32:12;;;;;;;2.70;0.90;;;;;;;11.86;100.00;100093.38;5320725;27;20024;-74
2023/11/09 00:34:44;;;;;;;2.60;1.30;;;;;;;11.95;100.00;100099.47;5314671;28;20043;-74
2023/11/09 00:37:16;;;;;;;1.92;0.90;;;;;;;11.94;100.00;100095.22;5311485;27;20028;-74
2023/11/09 00:39:48;;;;;;;1.88;0.90;;;;;;;11.96;100.00;100087.97;5314393;28;20035;-74
2023/11/09 00:42:22;;;;;;;1.20;0.80;;;;;;;11.88;100.00;100080.06;5317815;28;20045;-74
2023/11/09 00:44:54;;;;;;;1.42;0.90;;;;;;;11.95;100.00;100088.16;5313509;28;20137;-74
2023/11/09 00:47:26;;;;;;;1.20;0.75;;;;;;;11.98;100.00;100080.78;5315694;28;20024;-74
2023/11/09 00:49:58;;;;;;;1.85;1.00;;;;;;;11.97;100.00;100078.31;5314741;28;20400;-74
2023/11/09 00:52:30;;;;;;;1.40;0.90;;;;;;;11.93;100.00;100070.78;5315573;28;20393;-74
2023/11/09 00:55:02;;;;;;;3.83;0.95;;;;;;;11.93;100.00;100072.53;5313111;28;20027;-74
2023/11/09 00:57:34;;;;;;;3.40;1.10;;;;;;;11.92;100.00;100071.72;5314510;28;20028;-74
2023/11/09 01:00:07;;;;;;;2.05;0.98;;;;;;;11.88;100.00;100062.53;5326827;27;20055;-74
2023/11/09 01:02:39;;;;;;;1.60;0.90;;;;;;;11.96;100.00;100053.03;5337250;27;20031;-74
2023/11/09 01:05:11;;;;;;;1.50;1.00;;;;;;;11.89;100.00;100053.69;5336646;27;20401;-74
2023/11/09 01:07:44;;;;;;;1.70;1.00;;;;;;;11.96;100.00;100055.66;5335748;27;20027;-74
2023/11/09 01:10:17;;;;;;;1.90;0.90;;;;;;;11.93;100.00;100048.91;5335979;27;20038;-74
2023/11/09 01:12:48;;;;;;;1.98;0.77;;;;;;;11.93;100.00;100051.53;5337846;27;20038;-73
2023/11/09 01:15:20;;;;;;;2.92;1.05;;;;;;;11.90;100.00;100036.97;5334237;27;20019;-73
2023/11/09 01:18:00;;;;;;;3.78;1.08;;;;;;;12.05;100.00;100045.06;5334897;27;20026;-74
2023/11/09 01:20:34;;;;;;;1.50;0.90;;;;;;;11.87;100.00;100039.88;5336118;27;20380;-74
2023/11/09 01:23:11;;;;;;;2.10;1.10;;;;;;;11.92;100.00;100042.84;5335032;27;20038;-74
2023/11/09 01:25:43;;;;;;;1.25;0.90;;;;;;;11.94;100.00;100045.34;5333740;27;20034;-74
2023/11/09 01:28:15;;;;;;;5.20;1.20;;;;;;;11.95;100.00;100035.66;5311917;28;20387;-74
2023/11/09 01:30:47;;;;;;;1.65;0.95;;;;;;;11.95;100.00;100033.03;5308733;28;20610;-74
2023/11/09 01:33:19;;;;;;;1.60;1.00;;;;;;;11.95;100.00;100033.84;5312107;28;20032;-74
2023/11/09 01:35:51;;;;;;;2.03;1.10;;;;;;;11.96;100.00;100027.63;5312363;28;20031;-74
2023/11/09 01:38:25;;;;;;;1.63;0.80;;;;;;;12.02;100.00;100021.75;5313007;28;20027;-74
2023/11/09 01:40:57;;;;;;;1.50;1.00;;;;;;;12.02;100.00;100019.09;5315215;28;20023;-74
2023/11/09 01:43:28;;;;;;;1.65;0.85;;;;;;;11.98;100.00;100024.84;5311606;28;20031;-74
2023/11/09 01:46:02;;;;;;;2.30;0.90;;;;;;;12.00;100.00;100020.25;5312616;28;20477;-74
2023/11/09 01:48:35;;;;;;;2.17;0.90;;;;;;;12.02;100.00;100019.09;5311979;28;20035;-74
2023/11/09 01:51:07;;;;;;;1.93;1.00;;;;;;;12.05;100.00;100015.34;5313740;28;20038;-74
2023/11/09 01:53:38;;;;;;;1.42;0.90;;;;;;;12.02;100.00;100011.22;5323084;27;20130;-74
2023/11/09 01:56:14;;;;;;;1.48;0.80;;;;;;;12.01;100.00;100001.72;5335867;27;20031;-74
2023/11/09 01:58:48;;;;;;;1.42;0.85;;;;;;;12.00;100.00;99999.25;5332376;27;20027;-74
2023/11/09 02:01:21;;;;;;;2.15;0.90;;;;;;;11.99;100.00;99994.97;5333403;27;20035;-73
2023/11/09 02:03:53;;;;;;;2.17;1.10;;;;;;;11.97;100.00;99995.16;5334514;27;20366;-74
2023/11/09 02:06:25;;;;;;;1.23;0.80;;;;;;;12.00;100.00;99988.75;5336122;27;20120;-73
2023/11/09 02:08:58;;;;;;;1.45;0.82;;;;;;;12.01;100.00;99983.34;5332297;27;20027;-74
2023/11/09 02:11:30;;;;;;;2.03;1.05;;;;;;;12.09;100.00;99990.41;5333108;27;20046;-73
2023/11/09 02:14:02;;;;;;;1.58;0.90;;;;;;;12.06;100.00;99990.72;5331526;27;20028;-74
2023/11/09 02:16:34;;;;;;;1.95;0.90;;;;;;;12.05;100.00;99989.09;5334259;27;20495;-73
2023/11/09 02:19:08;;;;;;;1.98;1.13;;;;;;;12.08;100.00;99984.31;5332566;27;20039;-74
2023/11/09 02:21:42;;;;;;;2.25;1.00;;;;;;;12.10;100.00;99986.81;5327402;27;20400;-74
2023/11/09 02:24:15;;;;;;;2.30;1.13;;;;;;;12.09;100.00;99983.34;5313067;28;20493;-74
2023/11/09 02:26:47;;;;;;;2.30;1.05;;;;;;;12.13;100.00;99976.00;5336908;27;20042;-74
2023/11/09 02:29:22;;;;;;;1.88;1.05;;;;;;;12.15;100.00;99974.00;5333773;27;20035;-73
2023/11/09 02:31:53;;;;;;;1.77;1.15;;;;;;;12.14;100.00;99977.63;5334399;28;20038;-73
2023/11/09 02:34:27;;;;;;;1.67;1.00;;;;;;;12.12;100.00;99977.78;5334676;28;20015;-74
2023/11/09 02:36:59;;;;;;;;;;;;;;;12.77;100.00;99974.38;5334891;28;20035;-73
2023/11/09 02:39:31;;;;;;;2.20;1.27;;;;;;;12.13;100.00;99963.69;5336229;28;20278;-74
2023/11/09 02:42:03;;;;;;;1.90;1.17;;;;;;;12.18;100.00;99965.81;5333018;28;20033;-74
2023/11/09 02:44:35;;;;;;;4.17;1.30;;;;;;;12.21;100.00;99962.03;5313289;28;20047;-74
2023/11/09 02:47:07;;;;;;;3.13;1.30;;;;;;;12.16;100.00;99955.47;5334437;28;20025;-74
2023/11/09 02:49:38;;;;;;;1.88;1.13;;;;;;;12.17;100.00;99959.75;5309241;28;20488;-73
2023/11/09 02:52:10;;;;;;;2.20;1.25;;;;;;;12.17;100.00;99953.66;5311678;28;20428;-74
2023/11/09 02:54:42;;;;;;;2.45;1.35;;;;;;;12.20;100.00;99963.00;5306922;28;20020;-73
2023/11/09 02:57:14;;;;;;;2.03;1.20;;;;;;;12.21;100.00;99964.69;5308423;28;20032;-74
2023/11/09 02:59:47;;;;;;;3.60;1.55;;;;;;;12.20;100.00;99961.22;5311669;28;20039;-74
2023/11/09 03:02:20;;;;;;;1.55;1.10;;;;;;;12.22;100.00;99961.06;5311340;28;20032;-74
2023/11/09 03:04:52;;;;;;;3.60;1.30;;;;;;;12.23;100.00;99946.94;5311132;28;20031;-74
2023/11/09 03:07:25;;;;;;;3.20;1.50;;;;;;;12.20;100.00;99945.47;5313082;28;20057;-74
2023/11/09 03:09:57;;;;;;;3.78;1.40;;;;;;;12.27;100.00;99945.63;5313233;28;20031;-74
2023/11/09 03:12:29;;;;;;;2.60;1.80;;;;;;;12.25;100.00;99942.34;5311638;28;20037;-74
2023/11/09 03:15:00;;;;;;;3.03;2.08;;;;;;;12.29;100.00;99939.22;5313099;28;20032;-74
2023/11/09 03:17:32;;;;;;;2.13;1.27;;;;;;;12.30;100.00;99945.31;5314839;28;20497;-74
2023/11/09 03:20:09;;;;;;;4.80;1.77;;;;;;;12.32;100.00;99938.09;5315756;28;20366;-74
2023/11/09 03:22:44;;;;;;;3.38;1.60;;;;;;;12.40;100.00;99941.53;5315396;28;20585;-74
2023/11/09 03:25:16;;;;;;;5.47;1.30;;;;;;;12.33;100.00;99940.53;5333260;27;20550;-74
2023/11/09 03:27:48;;;;;;;3.33;1.40;;;;;;;12.32;100.00;99944.16;5335977;27;20031;-74
2023/11/09 03:30:20;;;;;;;3.13;1.50;;;;;;;12.33;100.00;99937.91;5336594;27;20035;-74
2023/11/09 03:32:52;;;;;;;2.40;1.30;;;;;;;12.33;100.00;99929.22;5337572;27;20034;-74
2023/11/09 03:35:24;;;;;;;2.40;1.27;;;;;;;12.34;100.00;99938.72;5335347;27;20035;-74
2023/11/09 03:37:56;;;;;;;3.20;1.20;;;;;;;12.35;100.00;99932.50;5334082;27;20038;-74
2023/11/09 03:40:27;;;;;;;1.77;1.30;;;;;;;12.37;100.00;99936.59;5318210;27;20049;-74
2023/11/09 03:42:59;;;;;;;2.95;1.38;;;;;;;12.37;100.00;99933.97;5336943;27;20045;-74
2023/11/09 03:45:31;;;;;;;2.50;1.45;;;;;;;12.37;100.00;99944.47;5328136;27;20033;-74
2023/11/09 03:48:03;;;;;;;3.80;1.55;;;;;;;12.38;100.00;99943.50;5339329;27;20396;-74
2023/11/09 03:50:36;;;;;;;2.83;1.42;;;;;;;12.38;100.00;99932.97;5337778;27;20027;-74
2023/11/09 03:53:07;;;;;;;4.22;1.60;;;;;;;12.41;100.00;99942.34;5335760;27;20061;-74
2023/11/09 03:55:39;;;;;;;2.88;1.33;;;;;;;12.43;100.00;99944.84;5336036;27;20019;-74
2023/11/09 03:58:11;;;;;;;2.22;1.40;;;;;;;12.45;100.00;99948.09;5337481;27;20027;-74
2023/11/09 04:00:43;;;;;;;2.85;1.58;;;;;;;12.48;100.00;99947.78;5336339;27;20353;-74
2023/11/09 04:03:15;;;;;;;2.83;1.45;;;;;;;12.48;100.00;99939.91;5336210;27;20045;-74
2023/11/09 04:05:47;;;;;;;3.15;1.40;;;;;;;12.44;100.00;99933.34;5337210;27;20479;-74
2023/11/09 04:08:19;;;;;;;4.88;1.63;;;;;;;12.50;100.00;99948.41;5337671;27;20396;-74
2023/11/09 04:10:51;;;;;;;3.78;1.67;;;;;;;12.49;100.00;99942.34;5336034;27;20027;-74
2023/11/09 04:13:22;;;;;;;2.85;1.60;;;;;;;12.50;100.00;99945.78;5302255;28;20044;-74
2023/11/09 04:15:54;;;;;;;7.25;2.38;;;;;;;12.50;100.00;99943.16;5314915;28;20206;-74
2023/11/09 04:18:26;;;;;;;3.28;1.70;;;;;;;12.49;100.00;99946.78;5314437;28;20042;-74
2023/11/09 04:20:58;;;;;;;4.90;1.80;;;;;;;12.51;100.00;99944.84;5314449;28;20110;-74
2023/11/09 04:23:31;;;;;;;2.22;1.67;;;;;;;12.49;100.00;99939.72;5314914;28;20051;-74
2023/11/09 04:26:12;;;;;;;5.78;2.25;;;;;;;12.58;100.00;99940.56;5311773;28;20102;-74
2023/11/09 04:28:44;;;;;;;3.40;2.13;;;;;;;12.53;100.00;99942.84;5314653;28;20038;-74
2023/11/09 04:31:20;;;;;;;2.78;1.70;;;;;;;12.53;100.00;99943.66;5310319;28;20425;-74
2023/11/09 04:33:54;;;;;;;4.45;1.85;;;;;;;12.56;100.00;99951.22;5314846;28;20042;-74
2023/11/09 04:36:27;;;;;;;5.53;1.77;;;;;;;12.47;100.00;99933.81;5314728;28;20020;-74
2023/11/09 04:38:59;;;;;;;3.17;2.22;;;;;;;12.62;100.00;99949.75;5318347;27;20586;-74
2023/11/09 04:41:33;;;;;;;3.58;2.08;;;;;;;12.62;100.00;99950.56;5336533;27;20031;-74
2023/11/09 04:44:11;;;;;;;3.38;1.85;;;;;;;12.62;100.00;99949.75;5337061;27;20029;-75
2023/11/09 04:46:42;;;;;;;3.10;2.17;;;;;;;12.64;100.00;99960.91;5337668;27;20038;-74
2023/11/09 04:49:18;;;;;;;3.08;2.40;;;;;;;12.62;100.00;99960.25;5336087;27;20031;-74
2023/11/09 04:51:51;;;;;;;5.13;2.90;;;;;;;12.61;100.00;99950.72;5336768;27;20042;-74
2023/11/09 04:54:24;;;;;;;3.28;2.97;;;;;;;12.64;100.00;99963.53;5336634;27;20019;-74
2023/11/09 04:58:34;;;;;;;3.45;2.90;;;;;;;12.65;100.00;99958.13;5337686;27;20034;-74
2023/11/09 05:08:00;;;;;;;4.38;3.97;;;;;;;12.69;100.00;99966.50;5318571;27;20032;-74
2023/11/09 05:10:32;;;;;;;5.55;4.47;;;;;;;12.71;100.00;99968.97;5298666;28;20032;-74
2023/11/09 05:13:04;;;;;;;6.15;5.22;;;;;;;12.70;100.00;99978.66;5296289;28;20035;-74
2023/11/09 05:15:36;;;;;;;6.15;5.22;;;;;;;12.68;100.00;99980.59;5315634;28;20038;-74
2023/11/09 05:18:08;;;;;;;5.68;5.20;;;;;;;12.68;100.00;99971.91;5315013;28;20455;-74
2023/11/09 05:20:40;;;;;;;5.70;5.20;;;;;;;12.67;100.00;99976.34;5302753;28;20063;-74
2023/11/09 05:23:12;;;;;;;8.17;6.10;;;;;;;12.64;100.00;99985.38;5298008;28;20036;-74
2023/11/09 05:25:45;;;;;;;6.03;5.43;;;;;;;12.56;100.00;99982.75;5316228;27;20044;-74
2023/11/09 05:28:18;;;;;;;6.80;6.20;;;;;;;12.52;100.00;99983.25;5314693;27;20034;-74
2023/11/09 05:30:50;;;;;;;6.43;5.82;;;;;;;12.52;100.00;99983.25;5312243;27;20323;-74
2023/11/09 05:33:23;;;;;;;6.03;5.53;;;;;;;12.50;100.00;99977.31;5312196;28;20385;-74
2023/11/09 05:35:55;;;;;;;6.28;5.68;;;;;;;12.53;100.00;99980.44;5312810;28;20042;-74
2023/11/09 05:38:27;;;;;;;6.65;5.95;;;;;;;12.50;100.00;99979.94;5312196;28;20443;-74
2023/11/09 05:40:59;;;;;;;6.77;6.20;;;;;;;12.53;100.00;99990.94;5315782;28;20028;-74
2023/11/09 05:43:31;;;;;;;7.10;6.50;;;;;;;12.46;100.00;99970.75;5312463;28;20564;-74
2023/11/09 05:46:03;;;;;;;7.30;6.60;;;;;;;12.50;100.00;99977.31;5312184;28;20031;-74
2023/11/09 05:48:35;;;;;;;7.55;6.85;;;;;;;12.51;100.00;99984.25;5313002;28;20040;-73
2023/11/09 05:51:07;;;;;;;9.13;6.90;;;;;;;12.47;100.00;99986.38;5316410;28;20392;-74
2023/11/09 05:53:39;;;;;;;9.00;7.05;;;;;;;12.43;100.00;99984.25;5314525;28;20035;-74
2023/11/09 05:56:10;;;;;;;8.25;6.93;;;;;;;12.47;100.00;99993.44;5314537;28;20028;-74
2023/11/09 05:58:43;;;;;;;8.02;7.22;;;;;;;12.43;100.00;99986.88;5313853;28;20027;-74
2023/11/09 06:01:15;;;;;;;9.53;8.63;;;;;;;12.44;100.00;100004.25;5313031;28;20386;-74
2023/11/09 06:03:47;;;;;;;11.63;10.43;;;;;;;12.37;100.00;100007.53;5313685;28;20293;-74
2023/11/09 06:06:19;;;;;;;10.52;9.63;;;;;;;12.40;100.00;100020.34;5314351;28;20047;-74
2023/11/09 06:08:51;;;;;;;10.77;9.77;;;;;;;12.45;100.00;100011.97;5312148;28;20031;-74
2023/11/09 06:11:25;;;;;;;11.88;10.38;;;;;;;12.43;100.00;100013.13;5313432;28;20504;-74
2023/11/09 06:13:56;;;;;;;11.02;9.93;;;;;;;12.41;100.00;100015.91;5312617;28;20089;-74
2023/11/09 06:16:30;;;;;;;10.82;9.85;;;;;;;12.40;100.00;100014.28;5315772;28;20566;-74
2023/11/09 06:19:02;;;;;;;;;;;;;;;13.13;100.00;100019.50;5316356;28;20032;-74
2023/11/09 06:21:33;;;;;;;12.45;11.25;;;;;;;12.42;100.00;100033.31;5314819;28;20411;-74
2023/11/09 06:24:06;;;;;;;12.25;11.05;;;;;;;12.34;100.00;100020.97;5310123;28;20024;-74
2023/11/09 06:26:38;;;;;;;11.48;10.38;;;;;;;12.35;100.00;100027.91;5316831;28;20058;-74
2023/11/09 06:29:10;;;;;;;12.27;10.98;;;;;;;12.30;100.00;100035.41;5311865;28;20019;-74
2023/11/09 06:31:43;;;;;;;13.63;10.50;;;;;;;12.36;100.00;100034.78;5312790;28;20027;-74
2023/11/09 06:34:15;;;;;;;13.13;10.48;;;;;;;12.34;100.00;100030.66;5313147;28;20031;-74
2023/11/09 06:36:48;;;;;;;12.82;11.32;;;;;;;12.31;100.00;100036.22;5316402;28;20023;-74
2023/11/09 06:39:22;;;;;;;11.33;9.90;;;;;;;12.26;100.00;100041.16;5314658;28;20032;-74
2023/11/09 06:41:54;;;;;;;12.25;10.98;;;;;;;12.18;100.00;100039.34;5335090;28;20031;-74
2023/11/09 06:44:26;;;;;;;12.82;11.52;;;;;;;12.17;100.00;100046.41;5336847;28;20027;-74
2023/11/09 06:46:58;;;;;;;13.07;10.68;;;;;;;12.15;100.00;100048.34;5332624;28;20406;-74
2023/11/09 06:49:30;;;;;;;15.60;12.07;;;;;;;12.05;100.00;100044.22;5336509;28;20023;-74
2023/11/09 06:52:04;;;;;;;12.75;11.38;;;;;;;12.11;100.00;100054.91;5338829;28;20044;-74
2023/11/09 06:54:36;;;;;;;13.45;11.40;;;;;;;12.06;100.00;100059.81;5339874;27;20031;-74
2023/11/09 06:57:11;;;;;;;13.55;11.05;;;;;;;12.04;100.00;100059.13;5336079;27;20055;-74
2023/11/09 06:59:43;;;;;;;13.82;10.48;;;;;;;12.03;100.00;100056.69;5338455;27;20059;-74
2023/11/09 07:02:15;;;;;;;13.68;10.80;;;;;;;12.04;100.00;100058.31;5338503;27;20038;-74
2023/11/09 07:04:47;;;;;;;13.80;10.20;;;;;;;11.98;100.00;100058.97;5338850;27;20380;-74
2023/11/09 07:07:19;;;;;;;15.45;10.60;;;;;;;11.95;100.00;100075.03;5341936;27;20020;-74
2023/11/09 07:09:51;;;;;;;13.70;10.30;;;;;;;11.90;100.00;100073.69;5341913;27;20031;-74
2023/11/09 07:12:25;;;;;;;13.40;10.07;;;;;;;11.92;100.00;100063.84;5338636;27;20039;-74
2023/11/09 07:14:56;;;;;;;14.82;10.00;;;;;;;11.93;100.00;100069.91;5338369;27;20030;-74
2023/11/09 07:17:28;;;;;;;15.02;10.93;;;;;;;11.87;100.00;100065.31;5339165;27;20027;-74
2023/11/09 07:20:00;;;;;;;14.38;10.52;;;;;;;11.85;100.00;100075.13;5335676;27;20026;-74
2023/11/09 07:22:33;;;;;;;13.07;10.10;;;;;;;11.81;100.00;100077.22;5340827;27;20031;-74
2023/11/09 07:25:08;;;;;;;17.27;11.00;;;;;;;11.81;100.00;100082.47;5333277;27;20043;-74
2023/11/09 07:27:40;;;;;;;14.25;10.50;;;;;;;11.76;100.00;100090.00;5340961;27;20039;-74
2023/11/09 07:30:12;;;;;;;17.10;11.03;;;;;;;11.80;100.00;100093.13;5333589;27;20027;-74
2023/11/09 07:32:44;;;;;;;15.52;10.55;;;;;;;11.74;100.00;100097.19;5337394;27;20369;-74
2023/11/09 07:35:16;;;;;;;15.38;10.77;;;;;;;11.68;100.00;100097.84;5339799;27;20019;-74
2023/11/09 07:37:48;;;;;;;17.33;11.32;;;;;;;11.69;100.00;100099.47;5338132;27;20035;-74
2023/11/09 07:40:20;;;;;;;15.55;10.75;;;;;;;11.65;100.00;100092.88;5339444;27;20054;-74
2023/11/09 07:42:52;;;;;;;18.63;10.85;;;;;;;11.64;100.00;100094.69;5339211;27;20034;-74
2023/11/09 07:45:24;;;;;;;17.40;10.65;;;;;;;11.61;100.00;100091.56;5337849;27;20388;-74
2023/11/09 07:47:56;;;;;;;17.92;10.80;;;;;;;11.65;100.00;100098.13;5336188;27;20031;-74
2023/11/09 07:50:30;;;;;;;16.58;10.45;;;;;;;11.63;100.00;100100.94;5339467;27;20026;-74
2023/11/09 07:53:02;;;;;;;16.17;10.20;;;;;;;11.65;100.00;100101.56;5328279;27;20028;-74
2023/11/09 07:55:35;;;;;;;12.90;10.93;;;;;;;11.66;100.00;100102.41;5335517;27;20034;-74
2023/11/09 07:58:08;;;;;;;14.32;10.35;;;;;;;11.72;100.00;100104.41;5335729;27;20039;-74
2023/11/09 08:00:40;;;;;;;17.30;9.93;;;;;;;11.70;100.00;100101.09;5336691;27;20039;-73
2023/11/09 08:03:14;;;;;;;16.65;10.35;;;;;;;11.64;100.00;100101.75;5335729;27;20393;-73
2023/11/09 08:05:47;;;;;;;14.20;9.48;;;;;;;11.60;100.00;100101.22;5332838;27;20488;-73
2023/11/09 08:08:19;;;;;;;15.68;9.38;;;;;;;11.64;100.00;100107.00;5335538;27;20388;-74
2023/11/09 08:10:51;;;;;;;12.50;8.65;;;;;;;11.63;100.00;100106.19;5333795;27;20038;-74
2023/11/09 08:13:23;;;;;;;13.70;8.77;;;;;;;11.63;100.00;100113.19;5336279;27;20664;-73
2023/11/09 08:15:57;;;;;;;15.40;9.20;;;;;;;11.69;100.00;100112.59;5334303;27;20019;-74
2023/11/09 08:18:28;;;;;;;12.60;9.13;;;;;;;11.60;100.00;100109.09;5333338;27;20027;-74
2023/11/09 08:21:03;;;;;;;14.10;8.70;;;;;;;11.57;100.00;100122.53;5328923;27;20055;-74
2023/11/09 08:23:36;;;;;;;15.98;8.60;;;;;;;11.54;100.00;100122.00;5337031;27;20031;-74
2023/11/09 08:26:11;;;;;;;11.95;7.85;;;;;;;11.56;100.00;100118.25;5338513;27;20027;-74
2023/11/09 08:28:43;;;;;;;13.90;8.15;;;;;;;11.45;100.00;100119.34;5333983;27;20035;-74
2023/11/09 08:31:15;;;;;;;13.45;8.18;;;;;;;11.46;100.00;100117.53;5333648;27;20038;-74
2023/11/09 08:33:47;;;;;;;18.83;8.40;;;;;;;11.40;100.00;100115.50;5338528;27;20376;-74
2023/11/09 08:36:19;;;;;;;15.23;8.32;;;;;;;11.37;100.00;100115.84;5335449;27;20030;-73
2023/11/09 08:38:51;;;;;;;14.95;6.72;;;;;;;11.31;100.00;100121.69;5334821;27;20031;-75
2023/11/09 08:41:23;;;;;;;12.57;6.85;;;;;;;11.24;100.00;100115.41;5333722;27;20027;-74
2023/11/09 08:43:55;;;;;;;15.18;6.80;;;;;;;11.23;100.00;100119.81;5316412;27;20385;-74
2023/11/09 08:46:28;;;;;;;14.20;6.32;;;;;;;11.22;100.00;100122.59;5336071;27;20050;-74
2023/11/09 08:49:00;;;;;;;11.70;6.05;;;;;;;11.23;100.00;100130.31;5326277;27;20031;-74
2023/11/09 08:51:34;;;;;;;9.93;5.43;;;;;;;11.21;100.00;100129.63;5337303;27;20500;-74
2023/11/09 08:54:07;;;;;;;13.15;5.78;;;;;;;11.20;100.00;100125.38;5334725;27;20027;-74
2023/11/09 08:56:39;;;;;;;12.02;5.50;;;;;;;11.19;100.00;100123.72;5331707;27;20035;-75
2023/11/09 08:59:11;;;;;;;12.13;5.75;;;;;;;11.22;100.00;100123.44;5329476;27;20053;-74
2023/11/09 09:01:48;;;;;;;11.13;5.22;;;;;;;11.30;100.00;100117.41;5333184;27;20054;-74
2023/11/09 09:04:21;;;;;;;13.82;5.43;;;;;;;11.33;100.00;100107.44;5337850;27;20388;-74
2023/11/09 09:06:54;;;;;;;13.27;5.63;;;;;;;11.36;100.00;100112.38;5334212;27;20027;-74
2023/11/09 09:09:26;;;;;;;13.50;5.95;;;;;;;11.37;100.00;100115.84;5332272;27;20774;-74
2023/11/09 09:11:59;;;;;;;12.05;5.57;;;;;;;11.42;100.00;100114.38;5335742;27;20031;-74
2023/11/09 09:14:31;;;;;;;11.13;6.32;;;;;;;11.42;100.00;100108.31;5335017;27;20065;-74
2023/11/09 09:17:05;;;;;;;9.80;4.95;;;;;;;11.40;100.00;100108.50;5324686;27;20023;-75
2023/11/09 09:19:38;;;;;;;11.75;5.25;;;;;;;11.38;100.00;100102.56;5334536;27;20507;-74
2023/11/09 09:22:12;;;;;;;16.00;6.82;;;;;;;11.44;100.00;100112.44;5336637;27;20031;-74
2023/11/09 09:24:43;;;;;;;10.02;6.05;;;;;;;11.49;100.00;100106.72;5334828;27;20464;-74
2023/11/09 09:27:15;;;;;;;13.05;5.30;;;;;;;11.53;100.00;100099.38;5334081;27;20031;-74
2023/11/09 09:29:47;;;;;;;13.98;6.20;;;;;;;11.53;100.00;100094.94;5335066;27;20038;-74
2023/11/09 09:32:20;;;;;;;13.75;6.28;;;;;;;11.55;100.00;100086.91;5335055;27;20031;-74
2023/11/09 09:34:52;;;;;;;13.73;7.03;;;;;;;11.58;100.00;100097.09;5331248;27;20326;-74
2023/11/09 09:37:24;;;;;;;10.15;5.57;;;;;;;11.52;100.00;100090.69;5334054;27;20389;-75
2023/11/09 09:39:56;;;;;;;15.20;6.10;;;;;;;11.62;100.00;100090.56;5322111;27;20023;-74
2023/11/09 09:42:28;;;;;;;10.63;6.20;;;;;;;11.62;100.00;100096.63;5330883;27;20023;-74
2023/11/09 09:45:02;;;;;;;12.43;5.85;;;;;;;11.65;100.00;100083.22;5324615;27;20457;-75
2023/11/09 09:47:34;;;;;;;;;;;;;;;12.44;100.00;100090.94;5335646;27;20046;-74
2023/11/09 09:50:07;;;;;;;11.18;5.00;;;;;;;11.88;100.00;100098.44;5331904;27;20369;-74
2023/11/09 09:52:39;;;;;;;12.07;5.03;;;;;;;11.97;100.00;100094.06;5332724;27;20081;-74
2023/11/09 09:55:11;;;;;;;15.25;5.80;;;;;;;12.01;100.00;100092.75;5335112;27;20031;-74
2023/11/09 09:57:44;;;;;;;15.05;5.95;;;;;;;12.09;100.00;100096.25;5335336;27;20042;-73
2023/11/09 10:00:23;;;;;;;13.18;5.47;;;;;;;12.17;100.00;100100.72;5331084;27;20058;-73
2023/11/09 10:03:01;;;;;;;13.88;5.75;;;;;;;12.33;100.00;100095.50;5330541;27;20031;-74
2023/11/09 10:05:36;;;;;;;13.40;5.25;;;;;;;12.28;100.00;100107.50;5333861;27;20035;-74
2023/11/09 10:08:08;;;;;;;8.23;4.38;;;;;;;12.30;100.00;100113.38;5330094;27;20049;-75
2023/11/09 10:10:47;;;;;;;9.20;4.38;;;;;;;12.38;100.00;100114.22;5324922;27;20040;-74
2023/11/09 10:13:23;;;;;;;13.05;5.25;;;;;;;12.30;100.00;100108.97;5334126;27;20519;-74
2023/11/09 10:15:59;;;;;;;15.30;5.03;;;;;;;12.26;100.00;100125.19;5335879;27;20034;-74
2023/11/09 10:18:33;;;;;;;13.98;4.93;;;;;;;12.30;100.00;100116.84;5331702;27;20036;-74
2023/11/09 10:21:06;;;;;;;13.10;4.70;;;;;;;12.34;100.00;100115.53;5333052;27;20016;-75
2023/11/09 10:23:39;;;;;;;11.07;3.80;;;;;;;12.38;100.00;100110.78;5333337;27;20476;-74
2023/11/09 10:26:13;;;;;;;12.13;4.68;;;;;;;12.43;100.00;100121.66;5332168;27;20038;-74
2023/11/09 10:28:51;;;;;;;12.50;4.68;;;;;;;12.47;100.00;100119.53;5331135;27;20031;-74
2023/11/09 10:31:32;;;;;;;9.77;3.80;;;;;;;12.63;100.00;100123.00;5331904;27;20049;-74
2023/11/09 10:34:04;;;;;;;8.35;4.35;;;;;;;12.48;100.00;100115.91;5333698;28;20015;-74
2023/11/09 10:36:37;;;;;;;11.40;4.07;;;;;;;12.41;100.00;100113.09;5332443;28;20430;-73
2023/11/09 10:39:17;;;;;;;10.07;4.45;;;;;;;12.59;100.00;100123.50;5317822;28;20035;-74
2023/11/09 10:41:52;;;;;;;9.60;4.07;;;;;;;12.49;100.00;100112.28;5336018;28;20600;-74
2023/11/09 10:44:28;;;;;;;13.65;5.03;;;;;;;12.64;100.00;100110.69;5336523;28;20019;-74
2023/11/09 10:47:00;;;;;;;11.82;3.63;;;;;;;12.61;100.00;100105.75;5332175;28;20022;-74
2023/11/09 10:49:35;;;;;;;14.93;4.15;;;;;;;12.64;100.00;100098.38;5332282;28;20040;-75
2023/11/09 10:52:08;;;;;;;10.45;3.75;;;;;;;12.67;100.00;100094.59;5329794;28;20392;-74
2023/11/09 10:54:42;;;;;;;10.80;3.78;;;;;;;12.60;100.00;100089.16;5326952;28;20042;-74
2023/11/09 10:57:15;;;;;;;7.88;3.15;;;;;;;12.59;100.00;100090.16;5327874;28;20023;-74
2023/11/09 10:59:48;;;;;;;12.75;3.75;;;;;;;12.58;100.00;100100.84;5327610;28;20027;-75
2023/11/09 11:02:20;;;;;;;;;;;;;;;13.33;100.00;100096.31;5332974;28;20038;-74
2023/11/09 11:04:55;;;;;;;12.63;3.45;;;;;;;12.70;100.00;100099.53;5335428;28;19907;-74
2023/11/09 11:07:29;;;;;;;9.82;2.72;;;;;;;12.80;100.00;100099.38;5332618;28;20036;-74
2023/11/09 11:10:03;;;;;;;9.57;2.88;;;;;;;12.80;100.00;100094.13;5334498;28;20023;-74
2023/11/09 11:12:36;;;;;;;8.20;3.08;;;;;;;12.77;100.00;100084.78;5333528;28;20412;-74
2023/11/09 11:15:11;;;;;;;8.80;2.72;;;;;;;12.75;100.00;100081.47;5336843;28;20035;-74
2023/11/09 11:18:02;;;;;;;9.27;2.60;;;;;;;12.98;100.00;100079.03;5335561;28;20027;-74
2023/11/09 11:20:56;;;;;;;11.05;3.42;;;;;;;12.99;100.00;100075.41;5335782;28;20038;-74
2023/11/09 11:23:47;;;;;;;9.15;2.80;;;;;;;13.09;100.00;100075.25;5334727;28;20538;-73
2023/11/09 11:26:21;;;;;;;11.35;3.60;;;;;;;12.86;100.00;100073.25;5330332;28;20032;-74
2023/11/09 11:28:53;;;;;;;10.80;2.85;;;;;;;12.88;100.00;100071.31;5332370;28;20034;-74
2023/11/09 11:31:25;;;;;;;9.48;2.47;;;;;;;12.99;100.00;100067.50;5334449;28;20035;-74
2023/11/09 11:33:57;;;;;;;10.88;2.80;;;;;;;13.11;100.00;100063.56;5323129;28;20022;-74
2023/11/09 11:36:33;;;;;;;10.15;3.15;;;;;;;13.19;100.00;100044.34;5333288;28;20381;-74
2023/11/09 11:39:36;;;;;;;9.32;2.67;;;;;;;13.59;100.00;100042.63;5334636;28;20043;-74
2023/11/09 11:42:16;;;;;;;12.68;3.88;;;;;;;13.45;100.00;100045.94;5340388;27;20027;-74
2023/11/09 11:45:01;;;;;;;10.70;3.13;;;;;;;13.62;100.00;100039.66;5336678;27;20030;-74
2023/11/09 11:47:34;;;;;;;9.07;3.30;;;;;;;13.50;100.00;100033.94;5336661;27;20384;-74
2023/11/09 11:50:10;;;;;;;9.65;2.65;;;;;;;13.50;100.00;100038.38;5336689;27;20543;-74
2023/11/09 11:52:47;;;;;;;13.10;2.95;;;;;;;13.58;100.00;100031.28;5336769;27;20051;-74